createdAt,value
2022-08-09T00:00:00.295Z,4.88
2022-08-09T00:04:06.320Z,4.65
2022-08-09T00:08:04.183Z,4.80
2022-08-09T00:12:04.710Z,5.18
2022-08-09T00:16:02.286Z,5.43
2022-08-09T00:19:55.500Z,5.10
2022-08-09T00:23:56.010Z,4.90
2022-08-09T00:27:52.228Z,4.70
2022-08-09T00:31:59.168Z,4.80
2022-08-09T00:35:53.482Z,4.88
2022-08-09T00:40:12.431Z,4.78
2022-08-09T00:44:12.957Z,5.05
2022-08-09T00:48:15.441Z,5.18
2022-08-09T00:52:17.752Z,5.07
2022-08-09T00:56:10.504Z,5.15
2022-08-09T01:00:20.544Z,4.90
2022-08-09T01:04:38.324Z,5.50
2022-08-09T01:09:17.468Z,4.35
2022-08-09T01:13:53.448Z,4.60
2022-08-09T01:18:04.905Z,5.28
2022-08-09T01:22:43.271Z,4.57
2022-08-09T01:26:57.461Z,4.72
2022-08-09T01:30:54.849Z,5.20
2022-08-09T01:34:54.762Z,5.20
2022-08-09T01:38:49.369Z,5.20
2022-08-09T01:42:42.795Z,5.22
2022-08-09T01:46:41.910Z,5.25
2022-08-09T01:50:41.868Z,5.20
2022-08-09T01:54:41.320Z,5.43
2022-08-09T01:58:35.091Z,5.03
2022-08-09T02:02:31.760Z,5.70
2022-08-09T02:06:45.482Z,5.55
2022-08-09T02:10:51.825Z,5.50
2022-08-09T02:18:42.769Z,5.55
2022-08-09T02:22:45.636Z,5.18
2022-08-09T02:26:40.378Z,4.97
2022-08-09T02:30:42.411Z,5.75
2022-08-09T02:34:40.469Z,5.90
2022-08-09T02:38:38.537Z,6.85
2022-08-09T02:42:38.982Z,6.30
2022-08-09T02:46:34.204Z,6.63
2022-08-09T02:50:45.267Z,6.20
2022-08-09T02:54:54.183Z,6.90
2022-08-09T02:58:49.444Z,6.82
2022-08-09T03:03:00.169Z,5.95
2022-08-09T03:06:54.258Z,6.00
2022-08-09T03:10:50.905Z,5.78
2022-08-09T03:14:45.718Z,6.32
2022-08-09T03:18:42.161Z,6.75
2022-08-09T03:22:41.735Z,6.55
2022-08-09T03:26:44.936Z,6.70
2022-08-09T03:30:38.543Z,6.60
2022-08-09T03:34:31.236Z,6.45
2022-08-09T03:38:28.836Z,6.72
2022-08-09T03:42:28.859Z,7.32
2022-08-09T03:46:29.266Z,6.85
2022-08-09T03:50:27.879Z,6.97
2022-08-09T03:54:29.527Z,6.45
2022-08-09T03:58:23.186Z,6.57
2022-08-09T04:02:19.803Z,6.90
2022-08-09T04:06:20.469Z,7.50
2022-08-09T04:10:13.406Z,7.15
2022-08-09T04:14:53.734Z,7.68
2022-08-09T04:18:21.540Z,7.03
2022-08-09T04:22:14.455Z,6.80
2022-08-09T04:26:09.762Z,6.55
2022-08-09T04:30:02.511Z,6.80
2022-08-09T04:33:59.311Z,6.07
2022-08-09T04:37:52.076Z,6.13
2022-08-09T04:41:46.170Z,5.18
2022-08-09T04:45:53.105Z,5.47
2022-08-09T04:49:54.658Z,5.88
2022-08-09T04:53:51.238Z,5.68
2022-08-09T04:57:54.139Z,5.32
2022-08-09T05:01:54.768Z,5.40
2022-08-09T05:05:52.048Z,6.18
2022-08-09T05:09:49.861Z,6.70
2022-08-09T05:13:43.090Z,9.10
2022-08-09T05:18:38.942Z,10.00
2022-08-09T05:21:55.639Z,9.63
2022-08-09T05:25:50.833Z,9.45
2022-08-09T05:29:43.958Z,10.32
2022-08-09T05:33:42.549Z,10.32
2022-08-09T05:37:44.741Z,11.67
2022-08-09T05:41:41.337Z,11.57
2022-08-09T05:45:53.035Z,12.00
2022-08-09T05:50:32.361Z,11.50
2022-08-09T05:53:59.429Z,10.88
2022-08-09T05:57:57.134Z,10.15
2022-08-09T06:01:50.598Z,10.35
2022-08-09T06:06:04.489Z,8.65
2022-08-09T06:10:02.812Z,8.57
2022-08-09T06:13:56.530Z,9.52
2022-08-09T06:17:48.889Z,10.50
2022-08-09T06:21:51.410Z,10.18
2022-08-09T06:25:55.145Z,11.00
2022-08-09T06:30:04.255Z,9.85
2022-08-09T06:34:00.742Z,11.98
2022-08-09T06:38:05.981Z,11.45
2022-08-09T06:42:09.303Z,11.23
2022-08-09T06:46:06.311Z,9.95
2022-08-09T06:54:14.858Z,9.32
2022-08-09T06:58:07.946Z,9.45
2022-08-09T07:02:20.951Z,7.95
2022-08-09T07:06:13.988Z,8.63
2022-08-09T07:10:22.396Z,8.20
2022-08-09T07:14:26.554Z,7.80
2022-08-09T07:18:19.661Z,8.25
2022-08-09T07:22:12.270Z,8.43
2022-08-09T07:26:07.005Z,7.55
2022-08-09T07:30:01.750Z,7.07
2022-08-09T07:33:55.842Z,7.18
2022-08-09T07:37:49.311Z,7.30
2022-08-09T07:41:42.022Z,6.22
2022-08-09T07:45:40.545Z,6.43
2022-08-09T07:50:05.299Z,5.85
2022-08-09T07:54:07.321Z,6.30
2022-08-09T07:58:01.128Z,6.40
2022-08-09T08:01:56.127Z,6.13
2022-08-09T08:05:54.077Z,5.43
2022-08-09T08:09:53.642Z,5.68
2022-08-09T08:13:56.350Z,5.95
2022-08-09T08:17:58.004Z,5.82
2022-08-09T08:21:53.116Z,5.07
2022-08-09T08:25:49.903Z,5.43
2022-08-09T08:29:48.474Z,5.35
2022-08-09T08:33:52.468Z,5.38
2022-08-09T08:38:02.202Z,5.00
2022-08-09T08:42:00.130Z,4.90
2022-08-09T08:46:10.118Z,4.70
2022-08-09T08:50:18.286Z,4.50
2022-08-09T08:54:20.298Z,4.10
2022-08-09T08:58:27.116Z,4.35
2022-08-09T09:02:31.116Z,3.63
2022-08-09T09:06:24.922Z,3.80
2022-08-09T09:10:18.264Z,3.60
2022-08-09T09:14:18.158Z,3.70
2022-08-09T09:18:17.573Z,4.13
2022-08-09T09:22:26.935Z,3.70
2022-08-09T09:26:26.171Z,3.88
2022-08-09T09:30:38.200Z,3.60
2022-08-09T09:34:32.255Z,3.55
2022-08-09T09:38:42.738Z,3.80
2022-08-09T09:42:36.447Z,3.53
2022-08-09T09:46:41.920Z,3.90
2022-08-09T09:50:49.792Z,3.80
2022-08-09T09:54:48.598Z,3.33
2022-08-09T09:58:49.222Z,3.53
2022-08-09T10:02:46.859Z,3.58
2022-08-09T10:06:43.054Z,3.78
2022-08-09T10:10:36.216Z,3.53
2022-08-09T10:14:33.440Z,3.83
2022-08-09T10:18:26.253Z,3.50
2022-08-09T10:22:31.140Z,3.72
2022-08-09T10:26:26.813Z,3.42
2022-08-09T10:34:36.042Z,3.20
2022-08-09T10:38:54.443Z,3.30
2022-08-09T10:42:41.327Z,3.25
2022-08-09T10:48:12.524Z,3.28
2022-08-09T10:51:41.203Z,3.55
2022-08-09T10:55:35.827Z,3.45
2022-08-09T10:59:57.950Z,3.95
2022-08-09T11:08:47.548Z,3.53
2022-08-09T11:12:40.726Z,3.50
2022-08-09T11:16:39.312Z,3.25
2022-08-09T11:20:45.527Z,3.42
2022-08-09T11:25:10.462Z,3.38
2022-08-09T11:29:04.620Z,3.50
2022-08-09T11:33:10.503Z,3.63
2022-08-09T11:37:07.614Z,3.55
2022-08-09T11:41:05.368Z,3.80
2022-08-09T11:44:57.968Z,3.50
2022-08-09T11:48:53.712Z,3.38
2022-08-09T11:53:15.454Z,3.70
2022-08-09T11:57:47.443Z,3.22
2022-08-09T12:02:16.860Z,3.25
2022-08-09T12:06:12.951Z,3.50
2022-08-09T12:10:08.666Z,3.30
2022-08-09T12:14:40.977Z,3.47
2022-08-09T12:18:49.009Z,3.65
2022-08-09T12:22:47.801Z,3.28
2022-08-09T12:28:58.633Z,3.28
2022-08-09T12:31:11.315Z,3.90
2022-08-09T12:35:19.352Z,3.40
2022-08-09T12:39:14.912Z,3.40
2022-08-09T12:43:07.496Z,3.38
2022-08-09T12:47:00.036Z,3.20
2022-08-09T12:50:54.822Z,3.45
2022-08-09T12:55:03.321Z,3.38
2022-08-09T12:59:11.889Z,3.28
2022-08-09T13:03:06.485Z,3.45
2022-08-09T13:07:16.941Z,3.08
2022-08-09T13:11:22.886Z,3.38
2022-08-09T13:15:17.009Z,3.08
2022-08-09T13:19:11.816Z,3.20
2022-08-09T13:24:06.617Z,2.90
2022-08-09T13:27:40.152Z,3.40
2022-08-09T13:32:16.348Z,3.40
2022-08-09T13:36:39.876Z,3.10
2022-08-09T13:41:50.896Z,2.95
2022-08-09T13:44:37.927Z,3.50
2022-08-09T13:48:34.797Z,3.08
2022-08-09T13:52:29.082Z,3.00
2022-08-09T13:56:21.707Z,3.13
2022-08-09T14:00:20.148Z,2.90
2022-08-09T14:04:13.691Z,3.17
2022-08-09T14:08:07.200Z,2.75
2022-08-09T14:12:06.123Z,2.70
2022-08-09T14:16:13.901Z,2.90
2022-08-09T14:20:07.481Z,2.95
2022-08-09T14:24:05.406Z,3.10
2022-08-09T14:28:03.163Z,3.08
2022-08-09T14:31:55.644Z,2.92
2022-08-09T14:35:52.755Z,2.78
2022-08-09T14:39:48.607Z,3.10
2022-08-09T14:43:47.403Z,3.40
2022-08-09T14:47:49.597Z,3.15
2022-08-09T14:51:51.780Z,2.92
2022-08-09T14:55:51.154Z,3.60
2022-08-09T14:59:48.097Z,3.10
2022-08-09T15:03:42.191Z,3.00
2022-08-09T15:07:36.186Z,2.90
2022-08-09T15:11:29.113Z,3.08
2022-08-09T15:15:23.565Z,3.20
2022-08-09T15:19:18.277Z,3.00
2022-08-09T15:24:00.919Z,3.15
2022-08-09T15:27:25.084Z,2.83
2022-08-09T15:31:20.269Z,3.10
2022-08-09T15:35:18.301Z,3.17
2022-08-09T15:39:25.475Z,2.97
2022-08-09T15:43:36.756Z,3.00
2022-08-09T15:47:43.589Z,3.00
2022-08-09T15:52:02.785Z,3.08
2022-08-09T15:56:21.735Z,3.00
2022-08-09T16:00:24.214Z,2.90
2022-08-09T16:04:16.868Z,2.83
2022-08-09T16:08:29.662Z,2.90
2022-08-09T16:12:23.612Z,3.00
2022-08-09T16:16:19.295Z,3.13
2022-08-09T16:20:13.142Z,2.85
2022-08-09T16:24:08.810Z,3.25
2022-08-09T16:28:13.718Z,3.00
2022-08-09T16:32:18.618Z,2.80
2022-08-09T16:36:19.757Z,3.00
2022-08-09T16:40:29.463Z,3.20
2022-08-09T16:44:28.761Z,3.40
2022-08-09T16:48:41.894Z,2.85
2022-08-09T16:52:36.336Z,3.17
2022-08-09T16:56:30.697Z,3.63
2022-08-09T17:00:23.415Z,2.90
2022-08-09T17:04:25.583Z,2.92
2022-08-09T17:08:47.004Z,3.10
2022-08-09T17:12:33.460Z,3.20
2022-08-09T17:16:26.212Z,2.97
2022-08-09T17:20:29.869Z,3.38
2022-08-09T17:24:30.986Z,2.95
2022-08-09T17:28:26.763Z,2.92
2022-08-09T17:32:34.677Z,3.00
2022-08-09T17:36:27.884Z,3.63
2022-08-09T17:40:20.572Z,3.10
2022-08-09T17:44:38.230Z,3.03
2022-08-09T17:48:31.379Z,2.88
2022-08-09T17:52:24.254Z,2.90
2022-08-09T17:56:18.195Z,2.90
2022-08-09T18:00:12.439Z,3.28
2022-08-09T18:04:05.300Z,3.65
2022-08-09T18:07:58.088Z,3.20
2022-08-09T18:12:15.317Z,3.15
2022-08-09T18:16:08.693Z,3.03
2022-08-09T18:21:01.200Z,3.03
2022-08-09T18:24:15.250Z,3.20
2022-08-09T18:28:20.974Z,3.05
2022-08-09T18:32:20.903Z,2.40
2022-08-09T18:36:14.214Z,1.80
2022-08-09T18:40:18.505Z,1.80
2022-08-09T18:44:19.818Z,2.78
2022-08-09T18:48:17.693Z,1.90
2022-08-09T18:52:12.298Z,1.70
2022-08-09T18:56:05.912Z,1.85
2022-08-09T19:00:03.698Z,2.05
2022-08-09T19:04:06.391Z,1.83
2022-08-09T19:08:09.887Z,1.70
2022-08-09T19:12:04.372Z,2.50
2022-08-09T19:15:57.292Z,1.92
2022-08-09T19:19:51.567Z,1.90
2022-08-09T19:24:36.358Z,1.73
2022-08-09T19:28:05.805Z,1.98
2022-08-09T19:32:00.021Z,1.70
2022-08-09T19:35:57.835Z,1.80
2022-08-09T19:40:04.317Z,1.60
2022-08-09T19:44:02.538Z,1.60
2022-08-09T19:47:55.612Z,1.80
2022-08-09T19:51:55.685Z,1.80
2022-08-09T19:56:01.851Z,1.60
2022-08-09T20:00:02.438Z,1.60
2022-08-09T20:04:17.881Z,1.50
2022-08-09T20:08:12.489Z,1.60
2022-08-09T20:12:09.741Z,1.50
2022-08-09T20:16:38.055Z,1.50
2022-08-09T20:20:32.563Z,1.30
2022-08-09T20:24:29.705Z,1.60
2022-08-09T20:28:31.987Z,1.60
2022-08-09T20:32:33.306Z,1.67
2022-08-09T20:36:38.218Z,1.55
2022-08-09T20:40:31.008Z,1.63
2022-08-09T20:44:26.993Z,1.60
2022-08-09T20:48:22.879Z,1.77
2022-08-09T20:52:15.305Z,2.20
2022-08-09T20:56:21.271Z,1.40
2022-08-09T21:00:20.088Z,1.40
2022-08-09T21:05:52.139Z,1.40
2022-08-09T21:08:36.576Z,1.63
2022-08-09T21:16:43.696Z,1.40
2022-08-09T21:20:38.467Z,2.17
2022-08-09T21:24:33.867Z,1.48
2022-08-09T21:28:35.133Z,1.70
2022-08-09T21:32:33.587Z,1.40
2022-08-09T21:36:30.622Z,1.40
2022-08-09T21:40:30.761Z,1.23
2022-08-09T21:44:32.904Z,1.50
2022-08-09T21:48:27.863Z,1.45
2022-08-09T21:52:21.552Z,1.50
2022-08-09T21:56:34.108Z,1.40
2022-08-09T22:00:33.062Z,1.20
2022-08-09T22:04:56.940Z,1.50
2022-08-09T22:08:38.581Z,1.25
2022-08-09T22:12:38.751Z,1.50
2022-08-09T22:16:36.814Z,1.67
2022-08-09T22:20:31.476Z,1.40
2022-08-09T22:24:25.000Z,1.35
2022-08-09T22:28:29.414Z,1.40
2022-08-09T22:36:24.066Z,1.40
2022-08-09T22:40:19.989Z,1.63
2022-08-09T22:44:13.082Z,1.50
2022-08-09T22:48:29.958Z,1.30
2022-08-09T22:52:18.534Z,1.38
2022-08-09T22:56:33.258Z,1.40
2022-08-09T23:00:25.298Z,1.50
2022-08-09T23:04:21.845Z,1.50
2022-08-09T23:08:36.998Z,1.48
2022-08-09T23:12:29.408Z,1.55
2022-08-09T23:16:22.959Z,1.70
2022-08-09T23:20:15.521Z,1.30
2022-08-09T23:24:08.554Z,1.60
2022-08-09T23:28:15.387Z,1.52
2022-08-09T23:32:08.728Z,1.60
2022-08-09T23:36:04.507Z,1.67
2022-08-09T23:39:59.105Z,1.60
2022-08-09T23:43:55.063Z,1.60
2022-08-09T23:47:47.777Z,1.63
2022-08-09T23:51:40.261Z,1.60
2022-08-09T23:55:33.310Z,1.60
2022-08-09T23:59:48.899Z,1.63
